Accueil
METAR-TAF:

METAR-TAF

Aéroports :

Rennes, France

Aéroport de Rennes

latitude: 48-04N, longitude: 001-44W, altitude: 37 m

Observation

Le bulletin a été fait il y a 24 minutes, à 16:00 UTC
Vent 10 kt de nord/nord-est
Température 7°C
Humidité 45%
Pression 1017 hPa
Visibilité 10 km ou plus
pas de nuages en-dessous de 1500 mètres et pas de cumulonimbus.

METAR: LFRN 221600Z AUTO 03010KT CAVOK 07/M04 Q1017 NOSIG

Heure: 17:24 (16:24 UTC)

Prévision

Le bulletin a été fait il y a 5 heures et 24 minutes, à 11:00 UTC
Prévision valable du 22 à 12 UTC au 23 à 12 UTC
Vent 10 kt de nord/nord-est
Visibilité: 7000 m
Temporairement
du 23 à 02 UTC au 23 à 09 UTC
Visibilité: 3000 m
brume

TAF: LFRN 221100Z 2212/2312 03010KT 7000 NSC TEMPO 2302/2309 3000 BR

Observations et prévisions météorologiques de plus de 4000 aéroports (messages METAR et TAF).

Les stations disponibles sont représentées par des disques jaunes et rouges sur la carte.

Passer la souris dessus pour voir le nom de la station.

Cliquer dessus pour voir les observations et prévisions météorologiques.

Pour changer de carte: cliquez sur les boutons verts avec une croix noire pour zoomer, sur le bouton vert avec un tiret pour effectuer un zoom arrière, ou sur les flèches vertes pour les cartes adjacentes.


METAR-TAF: